createdAt,value
2018-02-27T20:09:07.726Z,97927.78
2018-02-27T20:10:13.424Z,97928.31
2018-02-27T20:11:18.605Z,97928.72
2018-02-27T20:12:23.736Z,97931.59
2018-02-27T20:13:28.902Z,97926.97
2018-02-27T20:14:34.145Z,97932.69
2018-02-27T20:15:39.310Z,97932.62
2018-02-27T20:16:44.373Z,97936.91
2018-02-27T20:17:53.382Z,97936.19
2018-02-27T20:18:58.536Z,97930.46
2018-02-27T20:20:03.889Z,97930.47
2018-02-27T20:21:09.819Z,97929.75
2018-02-27T20:22:14.977Z,97935.11
2018-02-27T20:23:24.064Z,97935.89
2018-02-27T20:24:29.243Z,97940.39
2018-02-27T20:25:34.352Z,97937.08
2018-02-27T20:26:40.879Z,97932.16
2018-02-27T20:27:46.108Z,97929.70
2018-02-27T20:28:55.365Z,97938.23
2018-02-27T20:30:00.568Z,97935.03
2018-02-27T20:31:05.729Z,97935.44
2018-02-27T20:32:10.713Z,97941.40
2018-02-27T20:33:16.026Z,97938.47
2018-02-27T20:34:21.443Z,97940.03
2018-02-27T20:35:26.696Z,97940.36
2018-02-27T20:36:32.080Z,97938.79
2018-02-27T20:37:37.340Z,97940.43
2018-02-27T20:38:46.568Z,97938.50
2018-02-27T20:39:51.836Z,97941.92
2018-02-27T20:40:57.030Z,97941.58
2018-02-27T20:42:02.941Z,97939.02
2018-02-27T20:43:08.235Z,97943.53
2018-02-27T20:44:13.431Z,97945.27
2018-02-27T20:45:18.722Z,97950.05
2018-02-27T20:46:24.412Z,97946.89
2018-02-27T20:47:29.721Z,97942.44
2018-02-27T20:48:34.962Z,97949.38
2018-02-27T20:49:40.169Z,97947.28
2018-02-27T20:50:45.453Z,97948.97
2018-02-27T20:51:50.741Z,97953.38
2018-02-27T20:52:57.108Z,97947.98
2018-02-27T20:54:02.433Z,97952.68
2018-02-27T20:55:07.785Z,97950.72
2018-02-27T20:56:13.149Z,97945.95
2018-02-27T20:57:18.357Z,97950.41
2018-02-27T20:58:23.661Z,97945.91
2018-02-27T20:59:29.339Z,97944.63
2018-02-27T21:00:34.604Z,97946.80
2018-02-27T21:01:39.849Z,97942.95
2018-02-27T21:02:45.156Z,97949.97
2018-02-27T21:03:50.301Z,97952.20
2018-02-27T21:04:55.585Z,97956.41
2018-02-27T21:06:00.936Z,97955.17
2018-02-27T21:07:05.968Z,97954.97
2018-02-27T21:08:11.219Z,97952.38
2018-02-27T21:09:16.338Z,97953.13
2018-02-27T21:10:21.478Z,97954.79
2018-02-27T21:11:26.806Z,97952.77
2018-02-27T21:12:32.275Z,97961.86
2018-02-27T21:13:37.455Z,97955.77
2018-02-27T21:14:42.652Z,97959.71
2018-02-27T21:15:47.723Z,97962.77
2018-02-27T21:16:52.635Z,97966.42
2018-02-27T21:17:57.767Z,97964.76
2018-02-27T21:19:03.214Z,97963.56
2018-02-27T21:20:08.725Z,97964.28
2018-02-27T21:21:13.784Z,97966.00
2018-02-27T21:22:18.958Z,97955.78
2018-02-27T21:23:24.165Z,97965.16
2018-02-27T21:24:29.335Z,97968.91
2018-02-27T21:25:35.067Z,97963.33
2018-02-27T21:26:40.348Z,97962.80
2018-02-27T21:27:45.560Z,97965.97
2018-02-27T21:28:50.811Z,97961.91
2018-02-27T21:29:56.626Z,97961.96
2018-02-27T21:31:01.849Z,97962.88
2018-02-27T21:32:07.958Z,97970.65
2018-02-27T21:33:13.210Z,97962.33
2018-02-27T21:34:18.379Z,97960.89
2018-02-27T21:35:23.647Z,97964.92
2018-02-27T21:36:28.900Z,97968.56
2018-02-27T21:37:34.104Z,97967.61
2018-02-27T21:38:39.644Z,97963.94
2018-02-27T21:39:44.729Z,97964.43
2018-02-27T21:40:49.864Z,97968.99
2018-02-27T21:41:54.961Z,97969.04
2018-02-27T21:43:00.104Z,97962.84
2018-02-27T21:44:05.530Z,97966.87
2018-02-27T21:45:10.721Z,97965.81
2018-02-27T21:46:15.738Z,97968.70
2018-02-27T21:47:20.838Z,97976.09
2018-02-27T21:48:26.086Z,97971.64
2018-02-27T21:49:31.235Z,97967.09
2018-02-27T21:50:36.749Z,97972.88
2018-02-27T21:51:41.829Z,97972.52
2018-02-27T21:52:47.108Z,97972.67
2018-02-27T21:53:52.029Z,97973.05
2018-02-27T21:54:57.060Z,97973.33
2018-02-27T21:56:02.153Z,97972.33
2018-02-27T21:57:07.397Z,97977.34
2018-02-27T21:58:12.523Z,97974.27
2018-02-27T21:59:17.647Z,97978.41
2018-02-27T22:00:22.913Z,97980.05
2018-02-27T22:01:28.155Z,97980.31
2018-02-27T22:02:33.374Z,97983.09
2018-02-27T22:03:38.835Z,97982.66
2018-02-27T22:04:44.175Z,97980.27
2018-02-27T22:05:49.419Z,97983.11
2018-02-27T22:06:54.770Z,97982.21
2018-02-27T22:08:00.007Z,97979.28
2018-02-27T22:09:05.436Z,97976.72
2018-02-27T22:10:11.093Z,97979.89
2018-02-27T22:11:16.457Z,97979.09
2018-02-27T22:12:21.822Z,97980.21
2018-02-27T22:13:27.034Z,97979.89
2018-02-27T22:14:32.411Z,97981.09
2018-02-27T22:15:37.779Z,97983.18
2018-02-27T22:16:43.352Z,97981.42
2018-02-27T22:17:48.776Z,97977.73
2018-02-27T22:18:54.008Z,97977.41
2018-02-27T22:19:59.297Z,97985.64
2018-02-27T22:21:04.646Z,97982.78
2018-02-27T22:22:10.259Z,97981.46
2018-02-27T22:23:15.766Z,97979.69
2018-02-27T22:24:21.086Z,97989.56
2018-02-27T22:25:26.398Z,97983.59
2018-02-27T22:26:31.757Z,97985.08
2018-02-27T22:27:36.862Z,97989.88
2018-02-27T22:28:42.177Z,97983.54
2018-02-27T22:29:47.765Z,97991.53
2018-02-27T22:30:53.121Z,97987.98
2018-02-27T22:31:58.437Z,97987.73
2018-02-27T22:33:03.738Z,97988.39
2018-02-27T22:34:09.131Z,97982.64
2018-02-27T22:35:14.587Z,97982.98
2018-02-27T22:36:20.299Z,97982.02
2018-02-27T22:37:25.640Z,97988.12
2018-02-27T22:38:30.874Z,97980.77
2018-02-27T22:39:36.183Z,97983.51
2018-02-27T22:40:41.452Z,97982.72
2018-02-27T22:41:47.578Z,97991.09
2018-02-27T22:42:53.287Z,97986.92
2018-02-27T22:43:58.768Z,97988.61
2018-02-27T22:45:03.989Z,97983.81
2018-02-27T22:46:09.198Z,97985.75
2018-02-27T22:47:14.325Z,97988.17
2018-02-27T22:48:19.673Z,97986.39
2018-02-27T22:49:25.258Z,97985.09
2018-02-27T22:50:30.536Z,97981.92
2018-02-27T22:51:35.954Z,97988.78
2018-02-27T22:52:41.136Z,97989.48
2018-02-27T22:53:46.518Z,97993.12
2018-02-27T22:54:51.808Z,97990.10
2018-02-27T22:55:57.602Z,97998.66
2018-02-27T22:57:03.500Z,97990.23
2018-02-27T22:58:08.841Z,97995.45
2018-02-27T22:59:14.245Z,97996.58
2018-02-27T23:00:23.629Z,97994.58
2018-02-27T23:01:28.811Z,97987.98
2018-02-27T23:02:36.433Z,97994.52
2018-02-27T23:03:45.612Z,97995.50
2018-02-27T23:04:52.806Z,97989.05
2018-02-27T23:06:00.844Z,97987.35
2018-02-27T23:07:10.535Z,97992.52
2018-02-27T23:08:18.238Z,97990.30
2018-02-27T23:09:28.657Z,97994.75
2018-02-27T23:10:35.852Z,97989.92
2018-02-27T23:11:43.708Z,97984.63
2018-02-27T23:12:49.626Z,97983.48
2018-02-27T23:13:56.719Z,97982.99
2018-02-27T23:15:02.212Z,97986.28
2018-02-27T23:16:07.930Z,97985.91
2018-02-27T23:17:13.357Z,97981.59
2018-02-27T23:18:18.860Z,97983.64
2018-02-27T23:19:24.310Z,97984.91
2018-02-27T23:20:29.673Z,97986.02
2018-02-27T23:21:35.184Z,97979.06
2018-02-27T23:22:40.854Z,97984.34
2018-02-27T23:23:49.902Z,97980.31
2018-02-27T23:25:09.781Z,97982.56
2018-02-27T23:26:33.076Z,97985.16
2018-02-27T23:27:41.224Z,97980.34
2018-02-27T23:28:48.559Z,97986.89
2018-02-27T23:29:58.859Z,97990.05
2018-02-27T23:31:05.913Z,97990.63
2018-02-27T23:32:16.921Z,97984.39
2018-02-27T23:33:36.426Z,97984.71
2018-02-27T23:35:50.340Z,97985.73
2018-02-27T23:36:55.912Z,97986.27
2018-02-27T23:38:01.357Z,97983.47
2018-02-27T23:39:06.865Z,97991.94
2018-02-27T23:40:12.304Z,97987.75
2018-02-27T23:41:17.668Z,97984.04
2018-02-27T23:42:23.717Z,97989.48
2018-02-27T23:43:29.383Z,97982.66
2018-02-27T23:44:34.941Z,97990.06
2018-02-27T23:45:40.248Z,97987.95
2018-02-27T23:46:45.827Z,97991.19
2018-02-27T23:47:51.260Z,97994.05
2018-02-27T23:48:57.034Z,97994.70
2018-02-27T23:50:02.505Z,97991.63
2018-02-27T23:51:07.981Z,97988.07
2018-02-27T23:52:13.523Z,97992.48
2018-02-27T23:53:18.888Z,97988.83
2018-02-27T23:54:24.446Z,97988.79
2018-02-27T23:55:30.204Z,97990.13
2018-02-27T23:56:35.672Z,97986.53
2018-02-27T23:57:41.087Z,97992.80
2018-02-27T23:58:46.704Z,97993.14
2018-02-27T23:59:52.224Z,97993.42
